Meteo Giornale » Osservazioni meteo Italia » Gioia Del Colle

ore: 12:55 - Osservazioni Meteo Gioia Del Colle
Lat. 40° 46' N Lon. 16° 56' E Alt. 345 metri s.l.m.

poco_nuvoloso Europe/Rome

22 °C

Poco Nuvoloso

Temp. 24 Ore

13 °C

22 °C

Nord

1.8 Km/h

Dew point 14 °C

Umidità 60 %

Visibilità  10 Km

Il sole sorge alle ore 07:05

Il sole tramonta alle ore 18:08

Data e Ora Cielo e Fenomeni T °C DP °C Um. % Pres. hPa Vis. km Vento km/h
Oggi h: 12:55 poco_nuvoloso Poco Nuvoloso 22 14 60 1015 10 N 1.8
Oggi h: 11:55 poco_nuvoloso Poco Nuvoloso 21 17 77 1016 10 E/NE 7.4
Oggi h: 10:55 poco_nuvoloso Poco Nuvoloso 18 17 93 1016 8 N/NE 7.4
Oggi h: 09:55 foschia Foschia 16 16 100 1016 0.9 N/NE 7.4
Oggi h: 08:55 nebbia Nebbia 16 16 100 1015 0.1 N 9.3
Oggi h: 07:55 nebbia Nebbia 14 14 100 1015 0.1 N 5.5
Oggi h: 06:55 nebbia Nebbia 13 13 100 1015 0.3 N 1.8
Oggi h: 05:55 nebbia Nebbia 13 13 100 1015 0.1 N 3.7
Oggi h: 04:55 nebbia Nebbia 13 13 100 1015 0.2 N 1.8
Oggi h: 03:55 nebbia Nebbia 13 13 100 1016 0.3 N 3.7
Oggi h: 02:55 nebbia Nebbia 14 14 100 1016 0.3 N 1.8
Oggi h: 01:55 nebbia Nebbia 14 14 100 1016 0.2 N 1.8
Oggi h: 00:55 nebbia Nebbia 15 15 100 1017 0.2 N 1.8
Ieri h: 23:55 nebbia Nebbia 15 15 100 1017 0.2 N 1.8
Ieri h: 22:55 nebbia Nebbia 15 15 100 1017 0.2 N 3.7
Ieri h: 21:55 poco_nuvoloso Poco Nuvoloso 17 17 100 1016 8 N 3.7
Ieri h: 20:55 nuvoloso Nuvoloso 18 17 93 1016 8 N 5.5
Ieri h: 19:55 sereno Sereno 18 17 93 1016 10 N 3.7
Ieri h: 18:55 sereno Sereno 19 18 93 1015 10 S 7.4
Ieri h: 16:55 nuvoloso Nuvoloso 21 17 77 1016 10 S/SE 14.8